sensor_id;sensor_type;location;lat;lon;timestamp;P1;durP1;ratioP1;P2;durP2;ratioP2
8929;SDS011;4500;49.074;9.110;2023-09-12T00:01:12;1.17;;;1.07;;
8929;SDS011;4500;49.074;9.110;2023-09-12T00:03:40;0.90;;;0.90;;
8929;SDS011;4500;49.074;9.110;2023-09-12T00:06:08;0.60;;;0.60;;
8929;SDS011;4500;49.074;9.110;2023-09-12T00:08:35;2.40;;;2.30;;
8929;SDS011;4500;49.074;9.110;2023-09-12T00:11:03;5.53;;;5.03;;
8929;SDS011;4500;49.074;9.110;2023-09-12T00:13:33;5.27;;;5.07;;
8929;SDS011;4500;49.074;9.110;2023-09-12T00:16:00;3.60;;;3.47;;
8929;SDS011;4500;49.074;9.110;2023-09-12T00:18:29;4.40;;;4.20;;
8929;SDS011;4500;49.074;9.110;2023-09-12T00:20:56;5.03;;;4.83;;
8929;SDS011;4500;49.074;9.110;2023-09-12T00:23:28;4.33;;;4.13;;
8929;SDS011;4500;49.074;9.110;2023-09-12T00:25:56;4.80;;;4.60;;
8929;SDS011;4500;49.074;9.110;2023-09-12T00:28:24;4.50;;;4.30;;
8929;SDS011;4500;49.074;9.110;2023-09-12T00:30:52;3.03;;;2.93;;
8929;SDS011;4500;49.074;9.110;2023-09-12T00:33:20;2.17;;;2.07;;
8929;SDS011;4500;49.074;9.110;2023-09-12T00:35:48;2.17;;;2.10;;
8929;SDS011;4500;49.074;9.110;2023-09-12T00:38:15;0.80;;;0.80;;
8929;SDS011;4500;49.074;9.110;2023-09-12T00:40:43;0.80;;;0.80;;
8929;SDS011;4500;49.074;9.110;2023-09-12T00:43:11;0.80;;;0.80;;
8929;SDS011;4500;49.074;9.110;2023-09-12T00:45:38;1.50;;;1.40;;
8929;SDS011;4500;49.074;9.110;2023-09-12T00:48:06;1.93;;;1.83;;
8929;SDS011;4500;49.074;9.110;2023-09-12T00:50:34;3.10;;;3.00;;
8929;SDS011;4500;49.074;9.110;2023-09-12T00:53:02;4.10;;;3.90;;
8929;SDS011;4500;49.074;9.110;2023-09-12T00:55:31;3.90;;;3.70;;
8929;SDS011;4500;49.074;9.110;2023-09-12T00:57:59;4.10;;;3.90;;
8929;SDS011;4500;49.074;9.110;2023-09-12T01:00:27;3.87;;;3.70;;
8929;SDS011;4500;49.074;9.110;2023-09-12T01:02:55;5.43;;;5.20;;
8929;SDS011;4500;49.074;9.110;2023-09-12T01:05:23;3.13;;;3.03;;
8929;SDS011;4500;49.074;9.110;2023-09-12T01:07:50;3.23;;;3.10;;
8929;SDS011;4500;49.074;9.110;2023-09-12T01:10:18;1.53;;;1.47;;
8929;SDS011;4500;49.074;9.110;2023-09-12T01:12:46;0.70;;;0.70;;
8929;SDS011;4500;49.074;9.110;2023-09-12T01:15:13;0.97;;;0.97;;
8929;SDS011;4500;49.074;9.110;2023-09-12T01:17:42;0.70;;;0.70;;
8929;SDS011;4500;49.074;9.110;2023-09-12T01:20:32;0.73;;;0.73;;
8929;SDS011;4500;49.074;9.110;2023-09-12T01:28:19;1.47;;;1.40;;
8929;SDS011;4500;49.074;9.110;2023-09-12T01:30:48;1.23;;;1.20;;
8929;SDS011;4500;49.074;9.110;2023-09-12T01:33:15;0.70;;;0.70;;
8929;SDS011;4500;49.074;9.110;2023-09-12T01:35:43;0.80;;;0.80;;
8929;SDS011;4500;49.074;9.110;2023-09-12T01:38:13;3.37;;;3.17;;
8929;SDS011;4500;49.074;9.110;2023-09-12T01:40:47;0.70;;;0.70;;
8929;SDS011;4500;49.074;9.110;2023-09-12T01:43:17;0.70;;;0.70;;
8929;SDS011;4500;49.074;9.110;2023-09-12T01:45:47;3.13;;;2.20;;
8929;SDS011;4500;49.074;9.110;2023-09-12T01:48:18;0.70;;;0.70;;
8929;SDS011;4500;49.074;9.110;2023-09-12T01:50:48;1.53;;;1.47;;
8929;SDS011;4500;49.074;9.110;2023-09-12T01:53:16;0.77;;;0.77;;
8929;SDS011;4500;49.074;9.110;2023-09-12T01:55:44;1.00;;;1.00;;
8929;SDS011;4500;49.074;9.110;2023-09-12T01:58:12;0.90;;;0.90;;
8929;SDS011;4500;49.074;9.110;2023-09-12T02:00:40;0.70;;;0.70;;
8929;SDS011;4500;49.074;9.110;2023-09-12T02:03:08;1.77;;;1.67;;
8929;SDS011;4500;49.074;9.110;2023-09-12T02:05:36;1.33;;;1.33;;
8929;SDS011;4500;49.074;9.110;2023-09-12T02:08:04;2.90;;;2.80;;
8929;SDS011;4500;49.074;9.110;2023-09-12T02:10:32;6.40;;;5.90;;
8929;SDS011;4500;49.074;9.110;2023-09-12T02:12:59;3.77;;;3.60;;
8929;SDS011;4500;49.074;9.110;2023-09-12T02:15:27;4.30;;;4.10;;
8929;SDS011;4500;49.074;9.110;2023-09-12T02:17:54;4.00;;;3.80;;
8929;SDS011;4500;49.074;9.110;2023-09-12T02:20:22;2.50;;;2.40;;
8929;SDS011;4500;49.074;9.110;2023-09-12T02:22:49;1.33;;;1.30;;
8929;SDS011;4500;49.074;9.110;2023-09-12T02:25:17;0.80;;;0.80;;
8929;SDS011;4500;49.074;9.110;2023-09-12T02:27:45;1.20;;;1.10;;
8929;SDS011;4500;49.074;9.110;2023-09-12T02:30:13;1.00;;;1.00;;
8929;SDS011;4500;49.074;9.110;2023-09-12T02:32:43;0.67;;;0.67;;
8929;SDS011;4500;49.074;9.110;2023-09-12T02:35:11;1.27;;;1.27;;
8929;SDS011;4500;49.074;9.110;2023-09-12T02:37:39;0.83;;;0.83;;
8929;SDS011;4500;49.074;9.110;2023-09-12T02:40:06;1.47;;;1.47;;
8929;SDS011;4500;49.074;9.110;2023-09-12T02:42:37;0.80;;;0.80;;
8929;SDS011;4500;49.074;9.110;2023-09-12T02:45:05;3.83;;;3.70;;
8929;SDS011;4500;49.074;9.110;2023-09-12T02:47:33;3.73;;;3.60;;
8929;SDS011;4500;49.074;9.110;2023-09-12T02:50:01;3.37;;;3.23;;
8929;SDS011;4500;49.074;9.110;2023-09-12T02:52:29;3.53;;;3.40;;
8929;SDS011;4500;49.074;9.110;2023-09-12T02:54:57;4.50;;;4.30;;
8929;SDS011;4500;49.074;9.110;2023-09-12T02:57:24;5.33;;;5.13;;
8929;SDS011;4500;49.074;9.110;2023-09-12T02:59:52;2.70;;;2.60;;
8929;SDS011;4500;49.074;9.110;2023-09-12T03:02:20;1.10;;;1.07;;
8929;SDS011;4500;49.074;9.110;2023-09-12T03:04:47;1.33;;;1.30;;
8929;SDS011;4500;49.074;9.110;2023-09-12T03:07:15;2.47;;;2.27;;
8929;SDS011;4500;49.074;9.110;2023-09-12T03:09:43;0.67;;;0.67;;
8929;SDS011;4500;49.074;9.110;2023-09-12T03:12:10;1.10;;;1.10;;
8929;SDS011;4500;49.074;9.110;2023-09-12T03:14:38;0.70;;;0.70;;
8929;SDS011;4500;49.074;9.110;2023-09-12T03:17:05;2.87;;;2.77;;
8929;SDS011;4500;49.074;9.110;2023-09-12T03:19:33;3.87;;;3.70;;
8929;SDS011;4500;49.074;9.110;2023-09-12T03:22:00;3.30;;;3.20;;
8929;SDS011;4500;49.074;9.110;2023-09-12T03:24:28;4.70;;;4.50;;
8929;SDS011;4500;49.074;9.110;2023-09-12T03:26:55;4.00;;;3.80;;
8929;SDS011;4500;49.074;9.110;2023-09-12T03:29:23;3.30;;;3.10;;
8929;SDS011;4500;49.074;9.110;2023-09-12T03:31:51;3.13;;;3.00;;
8929;SDS011;4500;49.074;9.110;2023-09-12T03:34:18;5.80;;;5.17;;
8929;SDS011;4500;49.074;9.110;2023-09-12T03:36:45;0.70;;;0.70;;
8929;SDS011;4500;49.074;9.110;2023-09-12T03:39:13;1.00;;;1.00;;
8929;SDS011;4500;49.074;9.110;2023-09-12T03:41:42;2.73;;;2.63;;
8929;SDS011;4500;49.074;9.110;2023-09-12T03:44:09;1.40;;;1.40;;
8929;SDS011;4500;49.074;9.110;2023-09-12T03:46:37;3.30;;;3.07;;
8929;SDS011;4500;49.074;9.110;2023-09-12T03:49:04;2.90;;;2.80;;
8929;SDS011;4500;49.074;9.110;2023-09-12T03:51:33;3.53;;;3.40;;
8929;SDS011;4500;49.074;9.110;2023-09-12T03:54:01;3.37;;;3.27;;
8929;SDS011;4500;49.074;9.110;2023-09-12T03:56:29;3.67;;;3.50;;
8929;SDS011;4500;49.074;9.110;2023-09-12T03:58:56;4.13;;;3.93;;
8929;SDS011;4500;49.074;9.110;2023-09-12T04:01:26;3.40;;;3.27;;
8929;SDS011;4500;49.074;9.110;2023-09-12T04:03:54;4.17;;;3.97;;
8929;SDS011;4500;49.074;9.110;2023-09-12T04:06:22;3.20;;;3.10;;
8929;SDS011;4500;49.074;9.110;2023-09-12T04:08:49;1.43;;;1.37;;
8929;SDS011;4500;49.074;9.110;2023-09-12T04:11:17;2.60;;;2.50;;
8929;SDS011;4500;49.074;9.110;2023-09-12T04:13:56;4.30;;;4.10;;
8929;SDS011;4500;49.074;9.110;2023-09-12T04:16:24;4.30;;;4.10;;
8929;SDS011;4500;49.074;9.110;2023-09-12T04:18:52;6.00;;;5.70;;
8929;SDS011;4500;49.074;9.110;2023-09-12T04:21:19;1.53;;;1.50;;
8929;SDS011;4500;49.074;9.110;2023-09-12T04:23:47;0.87;;;0.87;;
8929;SDS011;4500;49.074;9.110;2023-09-12T04:26:16;1.43;;;1.43;;
8929;SDS011;4500;49.074;9.110;2023-09-12T04:28:46;0.70;;;0.70;;
8929;SDS011;4500;49.074;9.110;2023-09-12T04:31:13;1.70;;;1.60;;
8929;SDS011;4500;49.074;9.110;2023-09-12T04:33:41;3.10;;;2.90;;
8929;SDS011;4500;49.074;9.110;2023-09-12T04:36:09;0.90;;;0.90;;
8929;SDS011;4500;49.074;9.110;2023-09-12T04:38:37;1.23;;;1.23;;
8929;SDS011;4500;49.074;9.110;2023-09-12T04:41:04;3.00;;;2.90;;
8929;SDS011;4500;49.074;9.110;2023-09-12T04:43:33;4.57;;;4.27;;
8929;SDS011;4500;49.074;9.110;2023-09-12T04:46:01;3.63;;;3.47;;
8929;SDS011;4500;49.074;9.110;2023-09-12T04:48:28;4.20;;;4.00;;
8929;SDS011;4500;49.074;9.110;2023-09-12T04:50:56;3.73;;;3.53;;
8929;SDS011;4500;49.074;9.110;2023-09-12T04:53:23;3.10;;;3.00;;
8929;SDS011;4500;49.074;9.110;2023-09-12T04:55:52;2.63;;;2.53;;
8929;SDS011;4500;49.074;9.110;2023-09-12T04:58:20;2.30;;;2.20;;
8929;SDS011;4500;49.074;9.110;2023-09-12T05:00:48;1.93;;;1.83;;
8929;SDS011;4500;49.074;9.110;2023-09-12T05:03:15;0.70;;;0.70;;
8929;SDS011;4500;49.074;9.110;2023-09-12T05:05:47;0.90;;;0.90;;
8929;SDS011;4500;49.074;9.110;2023-09-12T05:08:15;0.97;;;0.97;;
8929;SDS011;4500;49.074;9.110;2023-09-12T05:10:46;0.87;;;0.87;;
8929;SDS011;4500;49.074;9.110;2023-09-12T05:13:14;0.80;;;0.80;;
8929;SDS011;4500;49.074;9.110;2023-09-12T05:15:42;2.37;;;2.23;;
8929;SDS011;4500;49.074;9.110;2023-09-12T05:18:10;0.80;;;0.80;;
8929;SDS011;4500;49.074;9.110;2023-09-12T05:20:38;1.37;;;1.37;;
8929;SDS011;4500;49.074;9.110;2023-09-12T05:23:05;2.43;;;2.33;;
8929;SDS011;4500;49.074;9.110;2023-09-12T05:25:32;3.53;;;3.37;;
8929;SDS011;4500;49.074;9.110;2023-09-12T05:28:00;3.87;;;3.67;;
8929;SDS011;4500;49.074;9.110;2023-09-12T05:30:27;4.63;;;4.43;;
8929;SDS011;4500;49.074;9.110;2023-09-12T05:32:55;4.17;;;3.97;;
8929;SDS011;4500;49.074;9.110;2023-09-12T05:35:22;4.03;;;3.73;;
8929;SDS011;4500;49.074;9.110;2023-09-12T05:37:50;1.10;;;1.07;;
8929;SDS011;4500;49.074;9.110;2023-09-12T05:40:18;1.77;;;1.70;;
8929;SDS011;4500;49.074;9.110;2023-09-12T05:42:46;0.80;;;0.80;;
8929;SDS011;4500;49.074;9.110;2023-09-12T05:45:13;3.70;;;3.40;;
8929;SDS011;4500;49.074;9.110;2023-09-12T05:47:41;1.13;;;1.13;;
8929;SDS011;4500;49.074;9.110;2023-09-12T05:50:08;0.80;;;0.80;;
8929;SDS011;4500;49.074;9.110;2023-09-12T05:52:36;2.10;;;2.00;;
8929;SDS011;4500;49.074;9.110;2023-09-12T05:55:03;3.70;;;3.57;;
8929;SDS011;4500;49.074;9.110;2023-09-12T05:57:31;3.60;;;3.47;;
8929;SDS011;4500;49.074;9.110;2023-09-12T06:00:02;3.67;;;3.50;;
8929;SDS011;4500;49.074;9.110;2023-09-12T06:02:31;3.50;;;3.37;;
8929;SDS011;4500;49.074;9.110;2023-09-12T06:05:00;3.67;;;3.53;;
8929;SDS011;4500;49.074;9.110;2023-09-12T06:07:27;5.13;;;4.93;;
8929;SDS011;4500;49.074;9.110;2023-09-12T06:09:55;3.73;;;3.57;;
8929;SDS011;4500;49.074;9.110;2023-09-12T06:12:22;3.30;;;3.20;;
8929;SDS011;4500;49.074;9.110;2023-09-12T06:14:50;1.33;;;1.30;;
8929;SDS011;4500;49.074;9.110;2023-09-12T06:17:19;1.43;;;1.40;;
8929;SDS011;4500;49.074;9.110;2023-09-12T06:19:48;0.93;;;0.93;;
8929;SDS011;4500;49.074;9.110;2023-09-12T06:22:18;3.37;;;3.07;;
8929;SDS011;4500;49.074;9.110;2023-09-12T06:24:46;1.67;;;1.57;;
8929;SDS011;4500;49.074;9.110;2023-09-12T06:27:14;0.80;;;0.80;;
8929;SDS011;4500;49.074;9.110;2023-09-12T06:29:48;1.07;;;1.07;;
8929;SDS011;4500;49.074;9.110;2023-09-12T06:32:17;1.07;;;1.07;;
8929;SDS011;4500;49.074;9.110;2023-09-12T06:34:45;2.07;;;1.97;;
8929;SDS011;4500;49.074;9.110;2023-09-12T06:37:14;6.70;;;3.90;;
8929;SDS011;4500;49.074;9.110;2023-09-12T06:39:42;0.80;;;0.80;;
8929;SDS011;4500;49.074;9.110;2023-09-12T06:42:09;0.70;;;0.70;;
8929;SDS011;4500;49.074;9.110;2023-09-12T06:44:37;1.67;;;1.67;;
8929;SDS011;4500;49.074;9.110;2023-09-12T06:47:04;3.13;;;3.03;;
8929;SDS011;4500;49.074;9.110;2023-09-12T06:49:32;3.93;;;3.73;;
8929;SDS011;4500;49.074;9.110;2023-09-12T06:52:03;3.20;;;3.10;;
8929;SDS011;4500;49.074;9.110;2023-09-12T06:54:32;3.23;;;3.13;;
8929;SDS011;4500;49.074;9.110;2023-09-12T06:57:00;3.33;;;3.23;;
8929;SDS011;4500;49.074;9.110;2023-09-12T06:59:27;4.60;;;4.40;;
8929;SDS011;4500;49.074;9.110;2023-09-12T07:01:55;3.90;;;3.70;;
8929;SDS011;4500;49.074;9.110;2023-09-12T07:04:22;3.00;;;2.90;;
8929;SDS011;4500;49.074;9.110;2023-09-12T07:06:51;2.07;;;1.97;;
8929;SDS011;4500;49.074;9.110;2023-09-12T07:09:18;1.13;;;1.10;;
8929;SDS011;4500;49.074;9.110;2023-09-12T07:11:47;0.70;;;0.70;;
8929;SDS011;4500;49.074;9.110;2023-09-12T07:14:15;0.70;;;0.70;;
8929;SDS011;4500;49.074;9.110;2023-09-12T07:16:43;1.00;;;1.00;;
8929;SDS011;4500;49.074;9.110;2023-09-12T07:19:11;0.70;;;0.70;;
8929;SDS011;4500;49.074;9.110;2023-09-12T07:21:39;0.90;;;0.90;;
8929;SDS011;4500;49.074;9.110;2023-09-12T07:24:06;3.73;;;3.43;;
8929;SDS011;4500;49.074;9.110;2023-09-12T07:26:34;2.70;;;2.60;;
8929;SDS011;4500;49.074;9.110;2023-09-12T07:29:01;3.53;;;3.40;;
8929;SDS011;4500;49.074;9.110;2023-09-12T07:31:29;3.57;;;3.40;;
8929;SDS011;4500;49.074;9.110;2023-09-12T07:33:57;2.83;;;2.73;;
8929;SDS011;4500;49.074;9.110;2023-09-12T07:36:24;4.40;;;4.20;;
8929;SDS011;4500;49.074;9.110;2023-09-12T07:38:53;2.37;;;2.27;;
8929;SDS011;4500;49.074;9.110;2023-09-12T07:41:20;1.03;;;1.00;;
8929;SDS011;4500;49.074;9.110;2023-09-12T07:43:47;1.77;;;1.67;;
8929;SDS011;4500;49.074;9.110;2023-09-12T07:46:15;0.60;;;0.60;;
8929;SDS011;4500;49.074;9.110;2023-09-12T07:48:43;2.70;;;2.50;;
8929;SDS011;4500;49.074;9.110;2023-09-12T07:51:14;2.10;;;2.00;;
8929;SDS011;4500;49.074;9.110;2023-09-12T07:53:44;0.90;;;0.90;;
8929;SDS011;4500;49.074;9.110;2023-09-12T07:56:12;0.60;;;0.60;;
8929;SDS011;4500;49.074;9.110;2023-09-12T07:58:40;1.50;;;1.40;;
8929;SDS011;4500;49.074;9.110;2023-09-12T08:01:08;0.93;;;0.93;;
8929;SDS011;4500;49.074;9.110;2023-09-12T08:03:36;2.73;;;2.63;;
8929;SDS011;4500;49.074;9.110;2023-09-12T08:06:06;3.07;;;2.90;;
8929;SDS011;4500;49.074;9.110;2023-09-12T08:08:34;3.17;;;3.07;;
8929;SDS011;4500;49.074;9.110;2023-09-12T08:11:02;2.80;;;2.70;;
8929;SDS011;4500;49.074;9.110;2023-09-12T08:13:29;3.27;;;3.07;;
8929;SDS011;4500;49.074;9.110;2023-09-12T08:15:57;3.57;;;3.43;;
8929;SDS011;4500;49.074;9.110;2023-09-12T08:18:27;3.03;;;2.93;;
8929;SDS011;4500;49.074;9.110;2023-09-12T08:20:56;2.63;;;2.53;;
8929;SDS011;4500;49.074;9.110;2023-09-12T08:23:24;2.50;;;2.40;;
8929;SDS011;4500;49.074;9.110;2023-09-12T08:25:51;2.47;;;2.37;;
8929;SDS011;4500;49.074;9.110;2023-09-12T08:28:19;1.30;;;1.27;;
8929;SDS011;4500;49.074;9.110;2023-09-12T08:30:46;0.80;;;0.80;;
8929;SDS011;4500;49.074;9.110;2023-09-12T08:33:14;0.70;;;0.70;;
8929;SDS011;4500;49.074;9.110;2023-09-12T08:35:42;1.13;;;1.13;;
8929;SDS011;4500;49.074;9.110;2023-09-12T08:38:10;0.60;;;0.60;;
8929;SDS011;4500;49.074;9.110;2023-09-12T08:40:38;0.90;;;0.90;;
8929;SDS011;4500;49.074;9.110;2023-09-12T08:43:06;1.23;;;1.23;;
8929;SDS011;4500;49.074;9.110;2023-09-12T08:45:35;1.90;;;1.80;;
8929;SDS011;4500;49.074;9.110;2023-09-12T08:48:03;2.57;;;2.47;;
8929;SDS011;4500;49.074;9.110;2023-09-12T08:50:31;2.63;;;2.53;;
8929;SDS011;4500;49.074;9.110;2023-09-12T08:53:01;2.50;;;2.40;;
8929;SDS011;4500;49.074;9.110;2023-09-12T08:55:34;2.53;;;2.43;;
8929;SDS011;4500;49.074;9.110;2023-09-12T08:58:03;2.50;;;2.40;;
8929;SDS011;4500;49.074;9.110;2023-09-12T09:00:32;2.70;;;2.60;;
8929;SDS011;4500;49.074;9.110;2023-09-12T09:03:00;2.60;;;2.50;;
8929;SDS011;4500;49.074;9.110;2023-09-12T09:05:29;2.30;;;2.20;;
8929;SDS011;4500;49.074;9.110;2023-09-12T09:07:58;3.13;;;3.03;;
8929;SDS011;4500;49.074;9.110;2023-09-12T09:10:26;4.00;;;3.80;;
8929;SDS011;4500;49.074;9.110;2023-09-12T09:13:16;0.70;;;0.70;;
8929;SDS011;4500;49.074;9.110;2023-09-12T09:15:45;0.60;;;0.60;;
8929;SDS011;4500;49.074;9.110;2023-09-12T09:18:14;0.60;;;0.60;;
8929;SDS011;4500;49.074;9.110;2023-09-12T09:20:42;0.77;;;0.77;;
8929;SDS011;4500;49.074;9.110;2023-09-12T09:23:15;0.70;;;0.70;;
8929;SDS011;4500;49.074;9.110;2023-09-12T09:25:45;1.00;;;1.00;;
8929;SDS011;4500;49.074;9.110;2023-09-12T09:28:19;1.17;;;1.13;;
8929;SDS011;4500;49.074;9.110;2023-09-12T09:30:48;1.00;;;1.00;;
8929;SDS011;4500;49.074;9.110;2023-09-12T09:33:21;2.20;;;2.10;;
8929;SDS011;4500;49.074;9.110;2023-09-12T09:35:49;1.07;;;1.07;;
8929;SDS011;4500;49.074;9.110;2023-09-12T09:38:21;1.10;;;1.10;;
8929;SDS011;4500;49.074;9.110;2023-09-12T09:40:49;1.13;;;1.13;;
8929;SDS011;4500;49.074;9.110;2023-09-12T09:43:20;0.60;;;0.60;;
8929;SDS011;4500;49.074;9.110;2023-09-12T09:45:48;0.80;;;0.80;;
8929;SDS011;4500;49.074;9.110;2023-09-12T09:48:23;0.60;;;0.60;;
8929;SDS011;4500;49.074;9.110;2023-09-12T09:51:01;3.17;;;3.07;;
8929;SDS011;4500;49.074;9.110;2023-09-12T09:53:30;2.43;;;2.33;;
8929;SDS011;4500;49.074;9.110;2023-09-12T09:56:09;2.80;;;2.70;;
8929;SDS011;4500;49.074;9.110;2023-09-12T09:58:57;0.70;;;0.70;;
8929;SDS011;4500;49.074;9.110;2023-09-12T10:01:28;2.67;;;2.57;;
8929;SDS011;4500;49.074;9.110;2023-09-12T10:04:00;2.20;;;2.10;;
8929;SDS011;4500;49.074;9.110;2023-09-12T10:06:28;2.40;;;2.30;;
8929;SDS011;4500;49.074;9.110;2023-09-12T10:08:57;2.60;;;2.50;;
8929;SDS011;4500;49.074;9.110;2023-09-12T10:11:28;2.63;;;2.53;;
8929;SDS011;4500;49.074;9.110;2023-09-12T10:14:05;2.30;;;2.20;;
8929;SDS011;4500;49.074;9.110;2023-09-12T10:16:34;2.00;;;1.90;;
8929;SDS011;4500;49.074;9.110;2023-09-12T10:19:17;0.60;;;0.60;;
8929;SDS011;4500;49.074;9.110;2023-09-12T10:24:45;0.60;;;0.60;;
8929;SDS011;4500;49.074;9.110;2023-09-12T10:27:13;0.60;;;0.60;;
8929;SDS011;4500;49.074;9.110;2023-09-12T10:29:42;0.60;;;0.60;;
8929;SDS011;4500;49.074;9.110;2023-09-12T10:32:14;0.70;;;0.70;;
8929;SDS011;4500;49.074;9.110;2023-09-12T10:34:42;0.60;;;0.60;;
8929;SDS011;4500;49.074;9.110;2023-09-12T10:37:12;0.60;;;0.60;;
8929;SDS011;4500;49.074;9.110;2023-09-12T10:39:43;0.50;;;0.50;;
8929;SDS011;4500;49.074;9.110;2023-09-12T10:42:11;1.27;;;1.17;;
8929;SDS011;4500;49.074;9.110;2023-09-12T10:44:40;0.70;;;0.70;;
8929;SDS011;4500;49.074;9.110;2023-09-12T10:47:07;0.93;;;0.93;;
8929;SDS011;4500;49.074;9.110;2023-09-12T10:49:35;1.47;;;1.47;;
8929;SDS011;4500;49.074;9.110;2023-09-12T10:52:04;2.10;;;2.00;;
8929;SDS011;4500;49.074;9.110;2023-09-12T10:54:41;2.20;;;2.10;;
8929;SDS011;4500;49.074;9.110;2023-09-12T10:57:09;0.70;;;0.70;;
8929;SDS011;4500;49.074;9.110;2023-09-12T11:02:38;1.00;;;1.00;;
8929;SDS011;4500;49.074;9.110;2023-09-12T11:05:06;1.33;;;1.33;;
8929;SDS011;4500;49.074;9.110;2023-09-12T11:07:57;1.93;;;1.83;;
8929;SDS011;4500;49.074;9.110;2023-09-12T11:10:25;4.97;;;4.50;;
8929;SDS011;4500;49.074;9.110;2023-09-12T11:12:54;2.57;;;2.47;;
8929;SDS011;4500;49.074;9.110;2023-09-12T11:15:24;1.73;;;1.63;;
8929;SDS011;4500;49.074;9.110;2023-09-12T11:18:00;1.37;;;1.37;;
8929;SDS011;4500;49.074;9.110;2023-09-12T11:20:51;1.77;;;1.73;;
8929;SDS011;4500;49.074;9.110;2023-09-12T11:23:26;3.07;;;2.97;;
8929;SDS011;4500;49.074;9.110;2023-09-12T11:26:04;1.67;;;1.67;;
8929;SDS011;4500;49.074;9.110;2023-09-12T11:28:32;2.13;;;2.03;;
8929;SDS011;4500;49.074;9.110;2023-09-12T11:31:00;2.10;;;2.00;;
8929;SDS011;4500;49.074;9.110;2023-09-12T11:33:28;3.33;;;3.23;;
8929;SDS011;4500;49.074;9.110;2023-09-12T11:35:56;3.23;;;3.13;;
8929;SDS011;4500;49.074;9.110;2023-09-12T11:38:31;2.93;;;2.83;;
8929;SDS011;4500;49.074;9.110;2023-09-12T11:40:59;2.63;;;2.53;;
8929;SDS011;4500;49.074;9.110;2023-09-12T11:43:26;1.87;;;1.77;;
8929;SDS011;4500;49.074;9.110;2023-09-12T11:45:55;2.90;;;2.80;;
8929;SDS011;4500;49.074;9.110;2023-09-12T11:48:25;2.77;;;2.67;;
8929;SDS011;4500;49.074;9.110;2023-09-12T11:50:56;2.00;;;1.90;;
8929;SDS011;4500;49.074;9.110;2023-09-12T11:53:24;1.33;;;1.33;;
8929;SDS011;4500;49.074;9.110;2023-09-12T11:55:54;2.03;;;1.93;;
8929;SDS011;4500;49.074;9.110;2023-09-12T11:58:25;3.07;;;2.97;;
8929;SDS011;4500;49.074;9.110;2023-09-12T12:00:57;2.60;;;2.50;;
8929;SDS011;4500;49.074;9.110;2023-09-12T12:03:27;2.13;;;2.03;;
8929;SDS011;4500;49.074;9.110;2023-09-12T12:05:55;2.57;;;2.47;;
8929;SDS011;4500;49.074;9.110;2023-09-12T12:08:23;1.93;;;1.83;;
8929;SDS011;4500;49.074;9.110;2023-09-12T12:10:54;2.13;;;2.03;;
8929;SDS011;4500;49.074;9.110;2023-09-12T12:13:22;1.60;;;1.60;;
8929;SDS011;4500;49.074;9.110;2023-09-12T12:15:51;1.57;;;1.50;;
8929;SDS011;4500;49.074;9.110;2023-09-12T12:18:21;1.37;;;1.37;;
8929;SDS011;4500;49.074;9.110;2023-09-12T12:20:49;0.83;;;0.83;;
8929;SDS011;4500;49.074;9.110;2023-09-12T12:23:17;0.57;;;0.57;;
8929;SDS011;4500;49.074;9.110;2023-09-12T12:25:44;1.30;;;1.30;;
8929;SDS011;4500;49.074;9.110;2023-09-12T12:28:12;2.10;;;2.00;;
8929;SDS011;4500;49.074;9.110;2023-09-12T12:30:39;2.10;;;2.00;;
8929;SDS011;4500;49.074;9.110;2023-09-12T12:33:08;2.40;;;2.30;;
8929;SDS011;4500;49.074;9.110;2023-09-12T12:36:03;0.60;;;0.60;;
8929;SDS011;4500;49.074;9.110;2023-09-12T12:38:35;1.87;;;1.77;;
8929;SDS011;4500;49.074;9.110;2023-09-12T12:41:33;1.23;;;1.23;;
8929;SDS011;4500;49.074;9.110;2023-09-12T12:44:14;1.37;;;1.37;;
8929;SDS011;4500;49.074;9.110;2023-09-12T12:46:49;1.63;;;1.63;;
8929;SDS011;4500;49.074;9.110;2023-09-12T12:49:19;0.70;;;0.70;;
8929;SDS011;4500;49.074;9.110;2023-09-12T12:51:48;0.50;;;0.50;;
8929;SDS011;4500;49.074;9.110;2023-09-12T12:54:16;0.90;;;0.90;;
8929;SDS011;4500;49.074;9.110;2023-09-12T12:56:43;1.57;;;1.57;;
8929;SDS011;4500;49.074;9.110;2023-09-12T12:59:12;2.30;;;2.20;;
8929;SDS011;4500;49.074;9.110;2023-09-12T13:01:40;1.93;;;1.83;;
8929;SDS011;4500;49.074;9.110;2023-09-12T13:04:11;2.50;;;2.40;;
8929;SDS011;4500;49.074;9.110;2023-09-12T13:06:38;1.77;;;1.70;;
8929;SDS011;4500;49.074;9.110;2023-09-12T13:09:07;2.20;;;2.10;;
8929;SDS011;4500;49.074;9.110;2023-09-12T13:11:36;3.03;;;2.93;;
8929;SDS011;4500;49.074;9.110;2023-09-12T13:14:04;2.13;;;2.03;;
8929;SDS011;4500;49.074;9.110;2023-09-12T13:16:37;2.80;;;2.70;;
8929;SDS011;4500;49.074;9.110;2023-09-12T13:19:06;2.50;;;2.40;;
8929;SDS011;4500;49.074;9.110;2023-09-12T13:21:34;2.30;;;2.20;;
8929;SDS011;4500;49.074;9.110;2023-09-12T13:24:01;1.87;;;1.77;;
8929;SDS011;4500;49.074;9.110;2023-09-12T13:26:29;1.30;;;1.30;;
8929;SDS011;4500;49.074;9.110;2023-09-12T13:28:57;8.80;;;2.77;;
8929;SDS011;4500;49.074;9.110;2023-09-12T13:31:25;0.70;;;0.70;;
8929;SDS011;4500;49.074;9.110;2023-09-12T13:33:53;0.93;;;0.93;;
8929;SDS011;4500;49.074;9.110;2023-09-12T13:36:21;2.40;;;2.20;;
8929;SDS011;4500;49.074;9.110;2023-09-12T13:38:50;0.60;;;0.60;;
8929;SDS011;4500;49.074;9.110;2023-09-12T13:41:18;0.70;;;0.70;;
8929;SDS011;4500;49.074;9.110;2023-09-12T13:43:48;0.60;;;0.60;;
8929;SDS011;4500;49.074;9.110;2023-09-12T13:46:16;0.80;;;0.80;;
8929;SDS011;4500;49.074;9.110;2023-09-12T13:48:44;1.23;;;1.23;;
8929;SDS011;4500;49.074;9.110;2023-09-12T13:51:13;1.47;;;1.47;;
8929;SDS011;4500;49.074;9.110;2023-09-12T13:53:41;1.67;;;1.67;;
8929;SDS011;4500;49.074;9.110;2023-09-12T13:56:08;1.63;;;1.63;;
8929;SDS011;4500;49.074;9.110;2023-09-12T13:58:36;2.20;;;2.10;;
8929;SDS011;4500;49.074;9.110;2023-09-12T14:01:09;1.57;;;1.57;;
8929;SDS011;4500;49.074;9.110;2023-09-12T14:03:46;0.80;;;0.80;;
8929;SDS011;4500;49.074;9.110;2023-09-12T14:06:15;2.40;;;2.20;;
8929;SDS011;4500;49.074;9.110;2023-09-12T14:08:43;1.70;;;1.70;;
8929;SDS011;4500;49.074;9.110;2023-09-12T14:11:11;1.63;;;1.63;;
8929;SDS011;4500;49.074;9.110;2023-09-12T14:13:57;0.80;;;0.80;;
8929;SDS011;4500;49.074;9.110;2023-09-12T14:16:40;2.03;;;1.93;;
8929;SDS011;4500;49.074;9.110;2023-09-12T14:19:12;1.73;;;1.73;;
8929;SDS011;4500;49.074;9.110;2023-09-12T14:21:41;1.63;;;1.63;;
8929;SDS011;4500;49.074;9.110;2023-09-12T14:24:12;2.93;;;2.83;;
8929;SDS011;4500;49.074;9.110;2023-09-12T14:26:39;1.57;;;1.57;;
8929;SDS011;4500;49.074;9.110;2023-09-12T14:29:07;1.90;;;1.80;;
8929;SDS011;4500;49.074;9.110;2023-09-12T14:31:35;1.93;;;1.83;;
8929;SDS011;4500;49.074;9.110;2023-09-12T14:34:04;1.50;;;1.50;;
8929;SDS011;4500;49.074;9.110;2023-09-12T14:36:33;2.03;;;1.93;;
8929;SDS011;4500;49.074;9.110;2023-09-12T14:39:00;2.03;;;1.97;;
8929;SDS011;4500;49.074;9.110;2023-09-12T14:41:27;2.70;;;2.47;;
8929;SDS011;4500;49.074;9.110;2023-09-12T14:43:55;0.60;;;0.60;;
8929;SDS011;4500;49.074;9.110;2023-09-12T14:46:22;0.80;;;0.80;;
8929;SDS011;4500;49.074;9.110;2023-09-12T14:48:51;0.63;;;0.63;;
8929;SDS011;4500;49.074;9.110;2023-09-12T14:51:27;0.90;;;0.90;;
8929;SDS011;4500;49.074;9.110;2023-09-12T14:53:59;1.00;;;1.00;;
8929;SDS011;4500;49.074;9.110;2023-09-12T14:56:27;1.00;;;1.00;;
8929;SDS011;4500;49.074;9.110;2023-09-12T14:58:55;0.60;;;0.60;;
8929;SDS011;4500;49.074;9.110;2023-09-12T15:01:22;0.80;;;0.80;;
8929;SDS011;4500;49.074;9.110;2023-09-12T15:03:51;0.60;;;0.60;;
8929;SDS011;4500;49.074;9.110;2023-09-12T15:06:19;0.70;;;0.70;;
8929;SDS011;4500;49.074;9.110;2023-09-12T15:08:48;0.60;;;0.60;;
8929;SDS011;4500;49.074;9.110;2023-09-12T15:11:16;0.63;;;0.63;;
8929;SDS011;4500;49.074;9.110;2023-09-12T15:13:44;1.30;;;1.30;;
8929;SDS011;4500;49.074;9.110;2023-09-12T15:16:14;1.33;;;1.33;;
8929;SDS011;4500;49.074;9.110;2023-09-12T15:18:41;1.67;;;1.67;;
8929;SDS011;4500;49.074;9.110;2023-09-12T15:21:09;1.47;;;1.47;;
8929;SDS011;4500;49.074;9.110;2023-09-12T15:23:36;1.77;;;1.77;;
8929;SDS011;4500;49.074;9.110;2023-09-12T15:26:04;1.43;;;1.43;;
8929;SDS011;4500;49.074;9.110;2023-09-12T15:28:31;1.33;;;1.33;;
8929;SDS011;4500;49.074;9.110;2023-09-12T15:30:59;0.87;;;0.87;;
8929;SDS011;4500;49.074;9.110;2023-09-12T15:33:30;2.17;;;2.07;;
8929;SDS011;4500;49.074;9.110;2023-09-12T15:35:57;1.10;;;1.10;;
8929;SDS011;4500;49.074;9.110;2023-09-12T15:38:26;0.60;;;0.60;;